Time;durP1;ratioP1;P1;durP2;ratioP2;P2;SDS_P1;SDS_P2;PMS_P1;PMS_P2;Temp;Humidity;BMP_temperature;BMP_pressure;BME280_temperature;BME280_humidity;BME280_pressure;Samples;Min_cycle;Max_cycle;Signal;HPM_P1;HPM_P2
2022/10/03 00:00:37;;;;;;;15.73;2.67;;;9.90;99.90;;;;;;4852424;29;20113;-62
2022/10/03 00:03:32;;;;;;;17.33;3.05;;;9.90;99.90;;;;;;4881763;29;20079;-62
2022/10/03 00:06:14;;;;;;;11.43;2.85;;;9.80;99.90;;;;;;4906682;29;20055;-61
2022/10/03 00:08:51;;;;;;;16.73;2.70;;;9.80;99.90;;;;;;4908524;29;20126;-61
2022/10/03 00:11:30;;;;;;;19.20;2.95;;;9.80;99.90;;;;;;4908508;29;20543;-61
2022/10/03 00:14:29;;;;;;;20.95;2.88;;;9.70;99.90;;;;;;4915060;29;20131;-61
2022/10/03 00:17:14;;;;;;;11.50;2.38;;;9.60;99.90;;;;;;4920817;29;20058;-61
2022/10/03 00:20:23;;;;;;;19.85;3.05;;;9.60;99.90;;;;;;4927570;29;20062;-62
2022/10/03 00:22:58;;;;;;;17.55;3.28;;;9.60;99.90;;;;;;4898834;29;20059;-61
2022/10/03 00:25:59;;;;;;;19.52;4.43;;;9.60;99.90;;;;;;4887796;29;20595;-61
2022/10/03 00:28:49;;;;;;;20.00;4.30;;;9.60;99.90;;;;;;4866505;29;20629;-62
2022/10/03 00:31:54;;;;;;;16.77;2.50;;;9.60;99.90;;;;;;4871148;29;20183;-61
2022/10/03 00:34:37;;;;;;;18.92;3.70;;;9.60;99.90;;;;;;4862656;29;20461;-61
2022/10/03 00:37:32;;;;;;;20.48;3.60;;;9.60;99.90;;;;;;4867410;29;20065;-61
2022/10/03 00:40:34;;;;;;;17.52;3.55;;;9.60;99.90;;;;;;4868592;29;20065;-60
2022/10/03 00:43:21;;;;;;;15.30;3.00;;;9.70;99.90;;;;;;4844513;29;20065;-61
2022/10/03 00:46:11;;;;;;;11.90;2.53;;;9.70;99.90;;;;;;4845271;29;20057;-61
2022/10/03 00:49:07;;;;;;;22.20;3.90;;;9.70;99.90;;;;;;4852814;29;20057;-61
2022/10/03 00:52:10;;;;;;;13.20;2.38;;;9.70;99.90;;;;;;4833759;29;20113;-60
2022/10/03 00:54:44;;;;;;;16.35;4.15;;;9.80;99.90;;;;;;4848575;29;20125;-60
2022/10/03 00:57:35;;;;;;;17.05;2.95;;;9.90;99.90;;;;;;4829688;29;20061;-62
2022/10/03 01:00:24;;;;;;;14.80;3.20;;;9.90;99.90;;;;;;4869365;29;20071;-62
2022/10/03 01:03:15;;;;;;;15.65;2.55;;;10.00;99.90;;;;;;4897298;29;20531;-61
2022/10/03 01:05:50;;;;;;;21.67;3.10;;;10.00;99.90;;;;;;4954024;28;20070;-61
2022/10/03 01:08:49;;;;;;;16.20;3.17;;;10.10;99.90;;;;;;4957483;28;20622;-63
2022/10/03 01:11:35;;;;;;;25.30;5.75;;;10.20;99.90;;;;;;4996861;28;20093;-61
2022/10/03 01:14:07;;;;;;;20.42;3.25;;;10.20;99.90;;;;;;5025858;28;20403;-61
2022/10/03 01:16:42;;;;;;;19.63;3.53;;;10.20;99.90;;;;;;5049169;28;20054;-60
2022/10/03 01:19:39;;;;;;;21.35;2.85;;;10.20;99.90;;;;;;5038183;28;20053;-61
2022/10/03 01:22:30;;;;;;;15.13;3.22;;;10.20;99.90;;;;;;5044506;28;20532;-61
2022/10/03 01:25:17;;;;;;;15.90;2.63;;;10.20;99.90;;;;;;5021095;28;20066;-61
2022/10/03 01:30:57;;;;;;;14.25;2.80;;;10.10;99.90;;;;;;5038293;28;20145;-61
2022/10/03 01:33:23;;;;;;;15.60;3.08;;;10.00;99.90;;;;;;5041453;28;20208;-61
2022/10/03 01:36:07;;;;;;;18.77;3.33;;;10.00;99.90;;;;;;5044161;28;20143;-61
2022/10/03 01:38:41;;;;;;;;;;;9.90;99.90;;;;;;5012666;28;20091;-61
2022/10/03 01:41:34;;;;;;;16.15;3.55;;;9.90;99.90;;;;;;5024439;28;19925;-60
2022/10/03 01:44:25;;;;;;;16.23;2.67;;;9.90;99.90;;;;;;5024214;28;20095;-60
2022/10/03 01:47:07;;;;;;;15.23;3.22;;;9.90;99.90;;;;;;5025507;28;20145;-61
2022/10/03 01:49:40;;;;;;;11.93;2.47;;;9.90;99.90;;;;;;5040165;28;20053;-61
2022/10/03 01:52:10;;;;;;;15.75;2.35;;;9.90;99.90;;;;;;5024489;28;20057;-61
2022/10/03 01:54:38;;;;;;;14.93;2.92;;;9.90;99.90;;;;;;5024794;28;20045;-61
2022/10/03 01:57:07;;;;;;;20.92;3.25;;;9.90;99.90;;;;;;5024890;28;20049;-61
2022/10/03 01:59:41;;;;;;;16.27;2.47;;;9.90;99.90;;;;;;5014732;28;20119;-60
2022/10/03 02:02:24;;;;;;;12.25;2.88;;;9.70;99.90;;;;;;5019054;28;20065;-61
2022/10/03 02:05:02;;;;;;;15.63;2.42;;;9.70;99.90;;;;;;5029868;28;20140;-61
2022/10/03 02:07:40;;;;;;;11.10;2.05;;;9.70;99.90;;;;;;5030334;28;20052;-61
2022/10/03 02:10:20;;;;;;;12.85;3.65;;;9.70;99.90;;;;;;5032403;28;20375;-61
2022/10/03 02:12:53;;;;;;;12.65;2.20;;;9.60;99.90;;;;;;5054206;28;20387;-61
2022/10/03 02:15:27;;;;;;;20.27;3.38;;;9.60;99.90;;;;;;5050187;28;20519;-60
2022/10/03 02:18:38;;;;;;;15.63;2.60;;;9.50;99.90;;;;;;5056932;28;20048;-60
2022/10/03 02:21:21;;;;;;;15.50;2.60;;;9.50;99.90;;;;;;4940385;28;20474;-60
2022/10/03 02:23:51;;;;;;;10.88;2.25;;;9.50;99.90;;;;;;4964495;28;20336;-60
2022/10/03 02:26:49;;;;;;;13.43;2.40;;;9.50;99.90;;;;;;4962011;28;20494;-61
2022/10/03 02:29:59;;;;;;;13.30;2.35;;;9.40;99.90;;;;;;4934748;28;20061;-60
2022/10/03 02:32:53;;;;;;;17.08;3.10;;;9.30;99.90;;;;;;4958408;28;20070;-60
2022/10/03 02:35:54;;;;;;;10.75;2.00;;;9.30;99.90;;;;;;4955280;28;20078;-61
2022/10/03 02:38:38;;;;;;;12.65;2.17;;;9.20;99.90;;;;;;4971281;28;20093;-64
2022/10/03 02:41:38;;;;;;;11.95;2.55;;;9.10;99.90;;;;;;4943564;28;20519;-63
2022/10/03 02:44:41;;;;;;;17.05;2.40;;;9.10;99.90;;;;;;4921240;29;20114;-61
2022/10/03 02:47:44;;;;;;;12.10;2.40;;;9.10;99.90;;;;;;4940083;28;20048;-60
2022/10/03 02:50:22;;;;;;;10.52;2.97;;;9.00;99.90;;;;;;4940489;28;20131;-61
2022/10/03 02:53:28;;;;;;;8.57;2.55;;;9.00;99.90;;;;;;4929826;29;20055;-61
2022/10/03 02:56:08;;;;;;;9.90;2.20;;;9.00;99.90;;;;;;4913504;29;20119;-61
2022/10/03 02:59:05;;;;;;;9.65;2.25;;;8.90;99.90;;;;;;4929232;29;20080;-61
2022/10/03 03:02:01;;;;;;;10.60;2.08;;;8.80;99.90;;;;;;4916034;29;20106;-61
2022/10/03 03:05:04;;;;;;;8.95;2.50;;;8.80;99.90;;;;;;4920813;29;20063;-61
2022/10/03 03:08:06;;;;;;;10.32;1.98;;;8.80;99.90;;;;;;4925827;29;20059;-61
2022/10/03 03:11:07;;;;;;;13.02;2.40;;;8.80;99.90;;;;;;4942977;29;20051;-61
2022/10/03 03:14:10;;;;;;;8.98;1.95;;;8.70;99.90;;;;;;4923369;29;20059;-61
2022/10/03 03:16:48;;;;;;;12.27;2.10;;;8.60;99.90;;;;;;4923073;29;20054;-61
2022/10/03 03:19:22;;;;;;;8.15;2.20;;;8.60;99.90;;;;;;4907064;29;20134;-60
2022/10/03 03:22:13;;;;;;;9.48;2.33;;;8.60;99.90;;;;;;4974505;28;20066;-59
2022/10/03 03:24:52;;;;;;;9.27;1.95;;;8.60;99.90;;;;;;4992646;28;20125;-62
2022/10/03 03:27:43;;;;;;;6.43;1.50;;;8.50;99.90;;;;;;4997644;28;20053;-61
2022/10/03 03:30:21;;;;;;;7.03;1.30;;;8.50;99.90;;;;;;5005865;28;20053;-61
2022/10/03 03:33:26;;;;;;;6.57;1.42;;;8.40;99.90;;;;;;5009842;28;20145;-61
2022/10/03 03:36:17;;;;;;;8.52;2.35;;;8.40;99.90;;;;;;5042540;28;20426;-60
2022/10/03 03:38:59;;;;;;;9.30;2.08;;;8.40;99.90;;;;;;5038504;28;20427;-61
2022/10/03 03:41:56;;;;;;;9.90;1.80;;;8.40;99.90;;;;;;5036849;28;20100;-61
2022/10/03 03:44:54;;;;;;;13.27;3.65;;;8.40;99.90;;;;;;5038517;28;20567;-61
2022/10/03 03:47:29;;;;;;;14.18;2.70;;;8.40;99.90;;;;;;4947737;28;20119;-61
2022/10/03 03:50:13;;;;;;;10.02;2.28;;;8.50;99.90;;;;;;4946906;28;20062;-61
2022/10/03 03:53:03;;;;;;;8.82;2.30;;;8.50;99.90;;;;;;4958036;28;20070;-61
2022/10/03 03:55:53;;;;;;;11.75;1.83;;;8.50;99.90;;;;;;4938898;28;20047;-61
2022/10/03 03:58:54;;;;;;;11.73;2.10;;;8.50;99.90;;;;;;4952300;28;20067;-60
2022/10/03 04:01:31;;;;;;;10.00;1.92;;;8.50;99.90;;;;;;4942541;28;20114;-60
2022/10/03 04:04:22;;;;;;;6.63;1.77;;;8.50;99.90;;;;;;4950996;28;20058;-62
2022/10/03 04:06:47;;;;;;;10.93;2.15;;;8.40;99.90;;;;;;4943048;28;20047;-61
2022/10/03 04:09:34;;;;;;;5.72;1.45;;;8.50;99.90;;;;;;4945275;28;20055;-61
2022/10/03 04:12:54;;;;;;;8.98;2.97;;;8.40;99.90;;;;;;4950575;28;20573;-60
2022/10/03 04:15:29;;;;;;;7.25;2.63;;;8.30;99.90;;;;;;4967604;28;20058;-61
2022/10/03 04:21:19;;;;;;;11.43;1.90;;;8.40;99.90;;;;;;4971052;28;20157;-61
2022/10/03 04:24:11;;;;;;;10.13;1.90;;;8.30;99.90;;;;;;5006472;28;20065;-60
2022/10/03 04:27:05;;;;;;;7.30;1.80;;;8.20;99.90;;;;;;5042601;28;20049;-61
2022/10/03 04:29:46;;;;;;;10.18;2.20;;;8.20;99.90;;;;;;5043474;28;20053;-61
2022/10/03 04:32:34;;;;;;;12.20;2.30;;;8.20;99.90;;;;;;5024028;28;20053;-60
2022/10/03 04:35:30;;;;;;;7.93;1.90;;;8.20;99.90;;;;;;5048085;28;20504;-60
2022/10/03 04:38:11;;;;;;;8.25;1.73;;;8.30;99.90;;;;;;5044979;28;20067;-60
2022/10/03 04:41:07;;;;;;;6.05;2.20;;;8.30;99.90;;;;;;5039924;28;20684;-60
2022/10/03 04:44:04;;;;;;;13.23;2.55;;;8.30;99.90;;;;;;5046143;28;20496;-60
2022/10/03 04:46:59;;;;;;;9.85;2.53;;;8.30;99.90;;;;;;5036667;28;20644;-60
2022/10/03 04:49:40;;;;;;;12.80;2.53;;;8.40;99.90;;;;;;5043319;28;20569;-60
2022/10/03 04:52:32;;;;;;;15.38;2.83;;;8.40;99.90;;;;;;5044772;28;20229;-60
2022/10/03 04:55:19;;;;;;;8.85;2.30;;;8.30;99.90;;;;;;5044121;28;20057;-60
2022/10/03 04:58:06;;;;;;;6.25;1.60;;;8.40;99.90;;;;;;5058262;28;20588;-61
2022/10/03 05:00:54;;;;;;;5.47;1.83;;;8.40;99.90;;;;;;5020282;28;20492;-60
2022/10/03 05:03:45;;;;;;;5.80;1.65;;;8.30;99.90;;;;;;5039265;28;20528;-61
2022/10/03 05:06:22;;;;;;;9.25;2.05;;;8.20;99.90;;;;;;5045271;28;20154;-60
2022/10/03 05:09:12;;;;;;;7.55;2.22;;;8.20;99.90;;;;;;5052334;28;20520;-60
2022/10/03 05:12:32;;;;;;;8.40;1.73;;;8.20;99.90;;;;;;5041435;28;20061;-60
2022/10/03 05:15:10;;;;;;;8.20;1.58;;;8.20;99.90;;;;;;4989562;28;20050;-61
2022/10/03 05:17:58;;;;;;;2.92;1.20;;;8.10;99.90;;;;;;4995130;28;20527;-60
2022/10/03 05:20:49;;;;;;;5.75;1.33;;;8.00;99.90;;;;;;4976067;28;20086;-61
2022/10/03 05:23:23;;;;;;;4.70;1.45;;;8.00;99.90;;;;;;4981717;28;20062;-60
2022/10/03 05:26:15;;;;;;;4.32;1.63;;;8.00;99.90;;;;;;4984215;28;20133;-60
2022/10/03 05:28:53;;;;;;;3.45;1.40;;;7.90;99.90;;;;;;4989283;28;20595;-60
2022/10/03 05:31:39;;;;;;;2.63;1.60;;;7.90;99.90;;;;;;4988780;28;20050;-60
2022/10/03 05:34:50;;;;;;;4.55;1.67;;;7.80;99.90;;;;;;4990760;28;20405;-60
2022/10/03 05:37:29;;;;;;;5.70;1.98;;;7.80;99.90;;;;;;4966339;28;20520;-60
2022/10/03 05:40:12;;;;;;;6.45;1.90;;;7.80;99.90;;;;;;4982717;28;20535;-61
2022/10/03 05:43:13;;;;;;;8.50;2.20;;;7.80;99.90;;;;;;4972164;28;20456;-60
2022/10/03 05:45:42;;;;;;;8.68;2.22;;;7.80;99.90;;;;;;4978496;28;20570;-60
2022/10/03 05:48:20;;;;;;;8.10;1.88;;;7.80;99.90;;;;;;4996799;28;20050;-60
2022/10/03 05:51:16;;;;;;;6.40;1.70;;;7.80;99.90;;;;;;5028381;28;20052;-61
2022/10/03 05:54:13;;;;;;;3.10;1.60;;;7.80;99.90;;;;;;5041693;28;20049;-60
2022/10/03 05:57:23;;;;;;;6.55;1.90;;;7.80;99.90;;;;;;5039401;28;20045;-60
2022/10/03 06:00:26;;;;;;;7.95;2.60;;;7.90;99.90;;;;;;5022585;28;20111;-60
2022/10/03 06:03:34;;;;;;;11.00;2.73;;;7.90;99.90;;;;;;5032462;28;20057;-60
2022/10/03 06:06:19;;;;;;;5.78;1.95;;;8.00;99.90;;;;;;5029387;28;20049;-60
2022/10/03 06:09:23;;;;;;;6.85;1.80;;;8.10;99.90;;;;;;5029514;28;20065;-60
2022/10/03 06:11:51;;;;;;;9.95;2.65;;;8.40;99.90;;;;;;5041455;28;20053;-60
2022/10/03 06:15:08;;;;;;;8.48;2.97;;;8.90;99.90;;;;;;5068915;28;20464;-60
2022/10/03 06:18:08;;;;;;;7.63;2.72;;;9.40;99.90;;;;;;4968932;28;20058;-60
2022/10/03 06:21:00;;;;;;;8.13;2.55;;;10.10;99.90;;;;;;4951620;28;20060;-60
2022/10/03 06:23:53;;;;;;;5.55;2.33;;;10.80;99.90;;;;;;4952602;28;20081;-61
2022/10/03 06:26:50;;;;;;;6.45;2.08;;;11.20;99.90;;;;;;4970600;28;20126;-61
2022/10/03 06:29:53;;;;;;;6.38;2.65;;;11.30;99.90;;;;;;4969664;28;20062;-61
2022/10/03 06:33:03;;;;;;;7.55;2.35;;;11.30;99.90;;;;;;4962125;28;20892;-60
2022/10/03 06:36:01;;;;;;;6.63;2.33;;;11.40;99.90;;;;;;4941618;29;20134;-60
2022/10/03 06:39:12;;;;;;;5.95;2.70;;;11.50;99.90;;;;;;4942507;29;20051;-60
2022/10/03 06:41:55;;;;;;;8.05;2.65;;;11.50;99.90;;;;;;4874956;29;20060;-60
2022/10/03 06:44:47;;;;;;;8.02;2.85;;;11.60;99.90;;;;;;4851146;29;20052;-61
2022/10/03 06:47:16;;;;;;;4.93;2.08;;;11.60;99.90;;;;;;4865942;29;20065;-60
2022/10/03 06:49:50;;;;;;;6.03;2.72;;;11.70;99.90;;;;;;4892022;29;20052;-61
2022/10/03 06:52:55;;;;;;;11.55;2.53;;;11.80;99.90;;;;;;4881332;29;20140;-61
2022/10/03 06:55:49;;;;;;;7.13;2.47;;;11.90;99.90;;;;;;4851914;29;20073;-61
2022/10/03 06:58:49;;;;;;;12.48;3.00;;;12.00;99.90;;;;;;4849321;29;20061;-60
2022/10/03 07:01:45;;;;;;;6.68;2.25;;;12.20;99.90;;;;;;4832911;29;20061;-61
2022/10/03 07:04:23;;;;;;;9.35;3.33;;;12.30;99.90;;;;;;4832820;29;20061;-61
2022/10/03 07:07:04;;;;;;;8.15;3.00;;;12.50;99.90;;;;;;4846331;29;20427;-60
2022/10/03 07:10:06;;;;;;;8.65;2.75;;;12.60;99.90;;;;;;4830308;29;20144;-60
2022/10/03 07:13:03;;;;;;;11.07;2.88;;;12.70;99.90;;;;;;4841277;29;20122;-60
2022/10/03 07:15:53;;;;;;;7.65;3.20;;;12.80;99.90;;;;;;4854237;29;20053;-60
2022/10/03 07:19:00;;;;;;;9.10;2.72;;;13.00;99.90;;;;;;4861785;29;20057;-61
2022/10/03 07:21:31;;;;;;;7.43;2.55;;;13.20;99.90;;;;;;4853674;29;20157;-61
2022/10/03 07:24:09;;;;;;;8.50;2.60;;;13.30;99.90;;;;;;4874990;29;20057;-60
2022/10/03 07:27:00;;;;;;;11.90;2.75;;;13.40;99.90;;;;;;4867442;29;20065;-61
2022/10/03 07:29:44;;;;;;;11.50;2.58;;;13.50;99.90;;;;;;4863314;29;20069;-60
2022/10/03 07:32:30;;;;;;;8.35;2.88;;;13.60;99.90;;;;;;4885514;29;20454;-61
2022/10/03 07:38:59;;;;;;;14.05;4.00;;;13.60;99.90;;;;;;4967545;28;20042;-62
2022/10/03 07:41:52;;;;;;;9.82;3.15;;;13.70;99.90;;;;;;4953036;28;20490;-61
2022/10/03 07:44:39;;;;;;;11.68;4.00;;;13.80;99.90;;;;;;4966685;28;20470;-62
2022/10/03 07:47:25;;;;;;;9.65;3.20;;;13.90;99.90;;;;;;4948746;28;20039;-61
2022/10/03 07:50:40;;;;;;;11.63;2.95;;;14.00;99.90;;;;;;4964914;28;20073;-62
2022/10/03 07:53:21;;;;;;;8.70;2.60;;;14.20;99.90;;;;;;4969644;28;20058;-62
2022/10/03 07:56:06;;;;;;;12.68;3.10;;;14.40;99.90;;;;;;4964265;28;20215;-61
2022/10/03 07:59:09;;;;;;;17.05;3.47;;;14.60;99.90;;;;;;4966496;28;20066;-62
2022/10/03 08:02:12;;;;;;;11.30;3.08;;;14.70;99.90;;;;;;4965165;28;20116;-62
2022/10/03 08:04:50;;;;;;;13.80;3.30;;;14.90;99.90;;;;;;4965007;28;20051;-62
2022/10/03 08:08:08;;;;;;;12.40;2.67;;;15.10;99.90;;;;;;4948418;28;20132;-62
2022/10/03 08:10:59;;;;;;;10.70;2.70;;;15.20;99.90;;;;;;4906766;29;20135;-62
2022/10/03 08:13:42;;;;;;;12.27;2.85;;;15.20;99.90;;;;;;4906499;29;20052;-62
2022/10/03 08:16:19;;;;;;;;;;;15.30;99.90;;;;;;4970616;28;20541;-61
2022/10/03 08:19:06;;;;;;;13.68;2.85;;;15.40;99.90;;;;;;4981711;28;19926;-62
2022/10/03 08:21:52;;;;;;;9.80;2.83;;;15.50;99.90;;;;;;4981283;28;20549;-62
2022/10/03 08:24:59;;;;;;;16.30;3.33;;;15.40;99.90;;;;;;4979850;28;20393;-62
2022/10/03 08:28:02;;;;;;;10.50;2.63;;;15.30;99.90;;;;;;4977154;28;20093;-62
2022/10/03 08:30:50;;;;;;;13.25;2.92;;;15.30;99.90;;;;;;4977830;28;20061;-62
2022/10/03 08:33:46;;;;;;;12.07;2.42;;;15.40;99.90;;;;;;4980298;28;20597;-62
2022/10/03 08:36:31;;;;;;;9.82;2.10;;;15.40;99.90;;;;;;4954948;28;20046;-62
2022/10/03 08:39:08;;;;;;;10.40;2.50;;;15.40;99.90;;;;;;4983352;28;20529;-62
2022/10/03 08:42:03;;;;;;;7.43;1.95;;;15.30;99.90;;;;;;4985625;28;20105;-61
2022/10/03 08:44:50;;;;;;;7.63;2.45;;;15.40;99.90;;;;;;4937554;29;20063;-62
2022/10/03 08:47:35;;;;;;;11.90;2.67;;;15.40;99.90;;;;;;4966609;28;20061;-62
2022/10/03 08:50:54;;;;;;;10.38;2.20;;;15.50;99.90;;;;;;4991128;28;20050;-63
2022/10/03 08:53:27;;;;;;;7.03;2.05;;;15.60;99.90;;;;;;4936918;28;20537;-61
2022/10/03 08:56:12;;;;;;;8.65;2.50;;;15.70;99.90;;;;;;4995514;28;20061;-62
2022/10/03 08:59:08;;;;;;;9.77;2.20;;;15.80;99.90;;;;;;4980566;28;20301;-61
2022/10/03 09:01:50;;;;;;;7.60;2.05;;;15.90;99.90;;;;;;4991253;28;20061;-62
2022/10/03 09:04:21;;;;;;;9.45;2.35;;;15.90;99.90;;;;;;4985000;28;20051;-62
2022/10/03 09:07:14;;;;;;;8.93;1.90;;;15.90;99.90;;;;;;4982275;28;20074;-62
2022/10/03 09:09:57;;;;;;;9.05;1.95;;;16.00;99.90;;;;;;4970333;28;20061;-62
2022/10/03 09:12:42;;;;;;;9.55;2.10;;;16.10;99.90;;;;;;4984366;28;20066;-62
2022/10/03 09:15:17;;;;;;;7.95;1.95;;;16.30;99.90;;;;;;4990163;28;20097;-63
2022/10/03 09:18:07;;;;;;;9.85;2.90;;;16.40;99.90;;;;;;4995302;28;20050;-63
2022/10/03 09:20:45;;;;;;;11.85;2.55;;;16.50;99.90;;;;;;5009317;28;20365;-63
2022/10/03 09:23:24;;;;;;;7.25;2.00;;;16.60;99.90;;;;;;5045306;28;20146;-62
2022/10/03 09:26:24;;;;;;;7.43;1.75;;;16.60;99.90;;;;;;5041247;28;20053;-63
2022/10/03 09:29:27;;;;;;;6.85;1.92;;;16.70;99.90;;;;;;5047946;28;20045;-63
2022/10/03 09:32:22;;;;;;;8.02;1.85;;;16.70;99.90;;;;;;5040866;28;20068;-62
2022/10/03 09:35:08;;;;;;;9.57;1.75;;;16.80;99.90;;;;;;5046554;28;20132;-63
2022/10/03 09:38:01;;;;;;;8.88;1.98;;;16.70;99.90;;;;;;5031044;28;20041;-64
2022/10/03 09:41:11;;;;;;;8.70;2.03;;;16.70;99.90;;;;;;5036893;28;20144;-64
2022/10/03 09:44:01;;;;;;;6.68;1.55;;;16.80;99.90;;;;;;4987926;28;20068;-63
2022/10/03 09:47:21;;;;;;;9.73;1.83;;;16.80;99.90;;;;;;4998896;28;20049;-63
2022/10/03 09:50:02;;;;;;;8.98;1.92;;;16.90;99.90;;;;;;4972967;28;20545;-62
2022/10/03 09:52:40;;;;;;;11.02;2.53;;;16.90;99.90;;;;;;4992505;28;20547;-63
2022/10/03 09:55:13;;;;;;;8.32;1.98;;;17.00;99.90;;;;;;5002487;28;20076;-63
2022/10/03 09:58:07;;;;;;;9.65;2.40;;;17.00;99.90;;;;;;4988943;28;20045;-63
2022/10/03 10:00:39;;;;;;;12.13;2.50;;;17.00;99.90;;;;;;4976456;28;20126;-63
2022/10/03 10:03:04;;;;;;;8.98;1.70;;;17.10;99.90;;;;;;4984816;28;20560;-63
2022/10/03 10:05:36;;;;;;;7.43;1.75;;;17.10;99.90;;;;;;4990327;28;20054;-63
2022/10/03 10:08:38;;;;;;;7.22;1.95;;;17.20;99.90;;;;;;4981316;28;20530;-63
2022/10/03 10:11:28;;;;;;;10.73;2.35;;;17.30;99.90;;;;;;4995401;28;20829;-63
2022/10/03 10:14:31;;;;;;;6.57;2.28;;;17.40;99.90;;;;;;5006890;28;20060;-64
2022/10/03 10:17:08;;;;;;;10.57;2.00;;;17.40;99.90;;;;;;5041253;28;20059;-63
2022/10/03 10:19:39;;;;;;;8.52;2.20;;;17.40;99.90;;;;;;5034896;28;20049;-64
2022/10/03 10:22:23;;;;;;;6.70;1.95;;;17.50;99.90;;;;;;5031758;28;20094;-64
2022/10/03 10:25:27;;;;;;;9.63;2.65;;;17.50;99.90;;;;;;5038222;28;20122;-63
2022/10/03 10:27:56;;;;;;;;;;;17.50;99.90;;;;;;5037860;28;20045;-64
2022/10/03 10:30:59;;;;;;;6.75;1.60;;;17.50;99.90;;;;;;5042481;28;19933;-64
2022/10/03 10:34:02;;;;;;;7.90;2.03;;;17.50;99.90;;;;;;5035816;28;20098;-63
2022/10/03 10:36:53;;;;;;;6.57;1.67;;;17.50;99.90;;;;;;5039306;28;20152;-63
2022/10/03 10:39:38;;;;;;;9.05;1.90;;;17.60;99.90;;;;;;5030549;28;20076;-63
2022/10/03 10:43:09;;;;;;;;;;;;;;;;;;;;;
2022/10/03 10:46:05;;;;;;;7.82;2.13;;;17.50;99.90;;;;;;4958594;28;20085;-63
2022/10/03 10:49:08;;;;;;;9.23;2.55;;;17.70;99.90;;;;;;4941665;28;20089;-63
2022/10/03 10:51:55;;;;;;;6.75;1.70;;;17.70;99.90;;;;;;4951550;28;20109;-63
2022/10/03 10:54:51;;;;;;;9.68;1.90;;;17.70;99.90;;;;;;4937319;28;20484;-63
2022/10/03 10:58:08;;;;;;;5.70;1.85;;;17.70;99.90;;;;;;4944699;28;20564;-63
2022/10/03 11:01:02;;;;;;;8.13;2.13;;;17.60;99.90;;;;;;4932849;29;20063;-63
2022/10/03 11:04:12;;;;;;;9.85;2.42;;;17.70;99.90;;;;;;4933829;29;20074;-63
2022/10/03 11:06:56;;;;;;;8.57;2.03;;;17.60;99.90;;;;;;4911662;29;20063;-63
2022/10/03 11:09:40;;;;;;;9.55;2.33;;;17.70;99.90;;;;;;4947463;28;20576;-63
2022/10/03 11:12:14;;;;;;;11.38;2.08;;;17.60;99.90;;;;;;4939395;28;20063;-63
2022/10/03 11:15:17;;;;;;;8.07;2.03;;;17.70;99.90;;;;;;4939613;29;20050;-63
2022/10/03 11:18:35;;;;;;;8.07;2.20;;;17.70;99.90;;;;;;4924055;29;20068;-63
2022/10/03 11:21:44;;;;;;;8.45;2.35;;;17.70;99.90;;;;;;4981809;28;20059;-62
2022/10/03 11:24:37;;;;;;;6.07;2.00;;;17.80;99.90;;;;;;4945880;28;20055;-64
2022/10/03 11:27:44;;;;;;;9.43;3.08;;;17.90;99.90;;;;;;4946178;29;20320;-64
2022/10/03 11:30:19;;;;;;;8.82;2.00;;;18.10;99.90;;;;;;4942599;29;20138;-64
2022/10/03 11:33:20;;;;;;;9.45;2.30;;;18.30;99.90;;;;;;4945883;29;20063;-64
2022/10/03 11:36:12;;;;;;;6.55;1.80;;;18.50;99.90;;;;;;4945721;29;20581;-63
2022/10/03 11:38:46;;;;;;;8.85;2.22;;;18.60;99.90;;;;;;4965592;28;20053;-64
2022/10/03 11:42:05;;;;;;;6.53;1.50;;;18.60;99.90;;;;;;4981635;28;20089;-63
2022/10/03 11:44:36;;;;;;;9.70;1.85;;;18.40;99.90;;;;;;4926424;29;20051;-64
2022/10/03 11:47:38;;;;;;;9.30;2.33;;;18.30;99.90;;;;;;4930339;28;20194;-63
2022/10/03 11:50:33;;;;;;;8.40;1.58;;;18.20;99.90;;;;;;4910854;29;20080;-63
2022/10/03 11:53:17;;;;;;;6.82;1.75;;;18.20;99.90;;;;;;4937360;28;20051;-63
2022/10/03 11:55:43;;;;;;;12.13;3.22;;;18.00;99.90;;;;;;4940205;28;20055;-61
2022/10/03 11:58:42;;;;;;;7.80;1.63;;;17.90;99.90;;;;;;4945080;29;20097;-64
2022/10/03 12:01:34;;;;;;;11.23;3.03;;;17.90;99.90;;;;;;4969887;28;20053;-64
2022/10/03 12:04:25;;;;;;;10.57;1.70;;;17.80;99.90;;;;;;4986747;28;20580;-64
2022/10/03 12:10:08;;;;;;;8.10;1.95;;;17.80;99.90;;;;;;4922182;29;20166;-62
2022/10/03 12:12:52;;;;;;;6.22;1.83;;;17.80;99.90;;;;;;4924488;29;20617;-64
2022/10/03 12:15:20;;;;;;;8.35;2.60;;;17.80;99.90;;;;;;4912191;29;20070;-64
2022/10/03 12:18:08;;;;;;;5.85;1.88;;;17.70;99.90;;;;;;4898003;29;20163;-64
2022/10/03 12:20:58;;;;;;;9.20;1.95;;;17.70;99.90;;;;;;4931029;29;20086;-64
2022/10/03 12:23:52;;;;;;;10.15;1.60;;;17.70;99.90;;;;;;4945531;29;20154;-64
2022/10/03 12:26:42;;;;;;;7.13;1.85;;;17.60;99.90;;;;;;4933508;29;20058;-65
2022/10/03 12:29:13;;;;;;;6.15;1.85;;;17.60;99.90;;;;;;4935223;29;20154;-64
2022/10/03 12:32:07;;;;;;;6.72;1.60;;;17.60;99.90;;;;;;4948118;28;20539;-65
2022/10/03 12:35:16;;;;;;;5.47;1.73;;;17.70;99.90;;;;;;4936786;28;20105;-64
2022/10/03 12:38:18;;;;;;;6.78;1.45;;;17.70;99.90;;;;;;4941610;28;20090;-64
2022/10/03 12:41:11;;;;;;;6.68;2.05;;;17.80;99.90;;;;;;4935762;28;20047;-64
2022/10/03 12:44:04;;;;;;;5.57;1.30;;;17.80;99.90;;;;;;4974663;28;20067;-64
2022/10/03 12:46:59;;;;;;;7.85;1.85;;;17.90;99.90;;;;;;5007657;28;20084;-63
2022/10/03 12:49:25;;;;;;;6.60;1.40;;;17.70;99.90;;;;;;4999111;28;20050;-64
2022/10/03 12:52:00;;;;;;;6.78;2.05;;;17.70;99.90;;;;;;5004427;28;20073;-64
2022/10/03 12:54:37;;;;;;;8.38;1.48;;;17.70;99.90;;;;;;4996010;28;20046;-64
2022/10/03 12:57:30;;;;;;;4.47;1.92;;;17.70;99.90;;;;;;4989709;28;20066;-64
2022/10/03 13:00:21;;;;;;;7.40;1.52;;;17.70;99.90;;;;;;4991556;28;20050;-63
2022/10/03 13:03:04;;;;;;;6.38;2.08;;;17.70;99.90;;;;;;5002007;28;20116;-64
2022/10/03 13:05:37;;;;;;;9.02;1.67;;;17.80;99.90;;;;;;5000291;28;20053;-64
2022/10/03 13:08:28;;;;;;;5.00;1.40;;;17.80;99.90;;;;;;4999931;28;20046;-63
2022/10/03 13:11:08;;;;;;;6.55;1.42;;;17.90;99.90;;;;;;4979857;28;20559;-63
2022/10/03 13:13:52;;;;;;;5.10;1.48;;;17.70;99.90;;;;;;4975600;28;20058;-64
2022/10/03 13:16:33;;;;;;;5.43;1.55;;;17.90;99.90;;;;;;4982545;28;20576;-63
2022/10/03 13:19:16;;;;;;;5.32;1.38;;;17.90;99.90;;;;;;4975244;28;20050;-63
2022/10/03 13:22:06;;;;;;;5.38;1.73;;;17.90;99.90;;;;;;4977935;28;20054;-63
2022/10/03 13:24:51;;;;;;;6.13;1.67;;;17.80;99.90;;;;;;5027624;28;20097;-63
2022/10/03 13:27:49;;;;;;;5.07;1.63;;;17.80;99.90;;;;;;5029037;28;20083;-64
2022/10/03 13:30:44;;;;;;;6.68;1.40;;;17.70;99.90;;;;;;5064893;28;20452;-63
2022/10/03 13:33:32;;;;;;;7.53;2.03;;;17.60;99.90;;;;;;4948329;28;20055;-61
2022/10/03 13:36:27;;;;;;;5.82;1.30;;;17.60;99.90;;;;;;4941847;28;20055;-63
2022/10/03 13:39:14;;;;;;;5.25;1.50;;;17.50;99.90;;;;;;4942472;28;20058;-63
2022/10/03 13:42:09;;;;;;;6.00;1.65;;;17.50;99.90;;;;;;4943064;28;20407;-63
2022/10/03 13:44:36;;;;;;;11.13;3.10;;;17.50;99.90;;;;;;4914019;28;20102;-63
2022/10/03 13:47:40;;;;;;;6.65;1.98;;;17.40;99.90;;;;;;4952866;28;20050;-63
2022/10/03 13:50:25;;;;;;;8.82;1.67;;;17.40;99.90;;;;;;4922817;29;20159;-63
2022/10/03 13:53:03;;;;;;;8.02;2.13;;;17.40;99.90;;;;;;4932130;29;20329;-63
2022/10/03 13:55:45;;;;;;;7.97;1.40;;;17.40;99.90;;;;;;4904998;29;20071;-62
2022/10/03 13:58:31;;;;;;;7.05;1.58;;;17.40;99.90;;;;;;4919781;29;20428;-62
2022/10/03 14:01:12;;;;;;;7.90;1.73;;;17.50;99.90;;;;;;4931996;29;20459;-62
2022/10/03 14:04:10;;;;;;;8.80;1.90;;;17.60;99.90;;;;;;4918739;29;20139;-62
2022/10/03 14:06:51;;;;;;;10.52;2.03;;;17.70;99.90;;;;;;4931526;29;20067;-62
2022/10/03 14:09:36;;;;;;;9.05;2.10;;;17.70;99.90;;;;;;4932561;28;20305;-62
2022/10/03 14:12:07;;;;;;;6.53;1.70;;;17.70;99.90;;;;;;4991156;28;20100;-62
2022/10/03 14:14:42;;;;;;;7.63;1.67;;;17.70;99.90;;;;;;4998839;28;20053;-61
2022/10/03 14:17:34;;;;;;;6.80;2.00;;;17.70;99.90;;;;;;5003597;28;20060;-62
2022/10/03 14:20:30;;;;;;;5.85;1.85;;;17.50;99.90;;;;;;5004535;28;20054;-62
2022/10/03 14:23:08;;;;;;;7.03;1.85;;;17.50;99.90;;;;;;5001467;28;20061;-65
2022/10/03 14:25:47;;;;;;;6.05;1.58;;;17.40;99.90;;;;;;5001535;28;20437;-61
2022/10/03 14:28:36;;;;;;;9.00;1.77;;;17.30;99.90;;;;;;5043023;28;20080;-62
2022/10/03 14:31:30;;;;;;;7.82;2.42;;;17.30;99.90;;;;;;5037031;28;20115;-62
2022/10/03 14:34:06;;;;;;;6.03;2.10;;;17.30;99.90;;;;;;5024515;28;20566;-61
2022/10/03 14:36:38;;;;;;;7.00;1.60;;;17.20;99.90;;;;;;5031597;28;20081;-62
2022/10/03 14:39:22;;;;;;;6.80;1.40;;;17.30;99.90;;;;;;5029936;28;20082;-62
2022/10/03 14:42:17;;;;;;;8.30;1.80;;;17.30;99.90;;;;;;5040687;28;20483;-62
2022/10/03 14:44:54;;;;;;;5.53;1.50;;;17.30;99.90;;;;;;5035622;28;20477;-62
2022/10/03 14:47:22;;;;;;;5.50;1.40;;;17.20;99.90;;;;;;5039565;28;20050;-62
2022/10/03 14:49:51;;;;;;;7.57;2.17;;;17.20;99.90;;;;;;5049714;28;20586;-62
2022/10/03 14:52:42;;;;;;;7.20;2.08;;;17.20;99.90;;;;;;5044120;28;20444;-62